Time;durP1;ratioP1;P1;durP2;ratioP2;P2;SDS_P1;SDS_P2;PMS_P1;PMS_P2;Temp;Humidity;BMP_temperature;BMP_pressure;BME280_temperature;BME280_humidity;BME280_pressure;Samples;Min_cycle;Max_cycle;Signal;HPM_P1;HPM_P2
2021/05/22 00:00:17;;;;;;;6.90;2.83;;;;;;;;;;4896755;29;20044;-57
2021/05/22 00:02:43;;;;;;;11.73;2.60;;;;;;;;;;4916839;29;20040;-56
2021/05/22 00:05:09;;;;;;;11.45;3.85;;;;;;;;;;4918022;29;20089;-57
2021/05/22 00:07:35;;;;;;;10.77;3.78;;;;;;;;;;4916370;29;20103;-56
2021/05/22 00:10:02;;;;;;;9.43;2.53;;;;;;;;;;4917205;29;20052;-56
2021/05/22 00:12:27;;;;;;;7.53;2.42;;;;;;;;;;4916835;29;20039;-55
2021/05/22 00:14:53;;;;;;;12.65;2.80;;;;;;;;;;4919508;29;20048;-56
2021/05/22 00:17:19;;;;;;;8.75;2.70;;;;;;;;;;4917028;29;20454;-55
2021/05/22 00:19:45;;;;;;;6.38;2.50;;;;;;;;;;4917702;29;20058;-55
2021/05/22 00:22:11;;;;;;;9.88;2.70;;;;;;;;;;4918396;29;20535;-55
2021/05/22 00:24:37;;;;;;;7.45;2.55;;;;;;;;;;4916365;29;20071;-57
2021/05/22 00:27:03;;;;;;;5.93;2.72;;;;;;;;;;4915332;29;20040;-57
2021/05/22 00:29:29;;;;;;;9.55;2.78;;;;;;;;;;4917984;29;20038;-55
2021/05/22 00:31:54;;;;;;;8.13;2.03;;;;;;;;;;4916628;29;20044;-56
2021/05/22 00:34:20;;;;;;;7.22;2.13;;;;;;;;;;4917198;29;20153;-55
2021/05/22 00:36:46;;;;;;;6.38;1.73;;;;;;;;;;4893883;29;20043;-53
2021/05/22 00:39:12;;;;;;;6.63;2.40;;;;;;;;;;4919219;29;20336;-54
2021/05/22 00:42:03;;;;;;;8.05;2.60;;;;;;;;;;4870096;29;20076;-56
2021/05/22 00:44:31;;;;;;;6.18;1.95;;;;;;;;;;4870400;29;20041;-54
2021/05/22 00:46:58;;;;;;;6.85;1.98;;;;;;;;;;4871341;29;20131;-56
2021/05/22 00:49:24;;;;;;;5.80;1.70;;;;;;;;;;4855436;29;20076;-56
2021/05/22 00:51:49;;;;;;;5.90;2.10;;;;;;;;;;4872395;29;20124;-55
2021/05/22 00:54:16;;;;;;;9.02;2.10;;;;;;;;;;4872348;29;20465;-56
2021/05/22 00:56:42;;;;;;;6.75;2.00;;;;;;;;;;4870611;29;20041;-52
2021/05/22 00:59:12;;;;;;;4.78;2.15;;;;;;;;;;4872429;29;20603;-55
2021/05/22 01:01:38;;;;;;;4.70;1.80;;;;;;;;;;4870425;29;20224;-54
2021/05/22 01:04:04;;;;;;;4.03;1.92;;;;;;;;;;4871243;29;21011;-54
2021/05/22 01:06:32;;;;;;;6.50;2.05;;;;;;;;;;4869372;29;20713;-52
2021/05/22 01:09:02;;;;;;;11.18;2.15;;;;;;;;;;4873851;29;20431;-56
2021/05/22 01:11:30;;;;;;;6.15;2.10;;;;;;;;;;4870646;29;20183;-54
2021/05/22 01:14:02;;;;;;;7.10;1.83;;;;;;;;;;4895553;29;20040;-55
2021/05/22 01:16:30;;;;;;;4.95;1.90;;;;;;;;;;4898929;29;20052;-54
2021/05/22 01:18:58;;;;;;;10.13;2.10;;;;;;;;;;4901001;29;20072;-55
2021/05/22 01:21:24;;;;;;;7.85;1.73;;;;;;;;;;4898520;29;20111;-57
2021/05/22 01:23:53;;;;;;;10.85;2.33;;;;;;;;;;4895317;29;20032;-58
2021/05/22 01:26:20;;;;;;;5.45;1.90;;;;;;;;;;4893910;29;20092;-57
2021/05/22 01:28:47;;;;;;;7.90;1.60;;;;;;;;;;4897089;29;20314;-57
2021/05/22 01:31:13;;;;;;;5.75;1.88;;;;;;;;;;4896306;29;20050;-59
2021/05/22 01:33:39;;;;;;;5.32;1.92;;;;;;;;;;4894910;29;20116;-57
2021/05/22 01:36:05;;;;;;;9.88;1.75;;;;;;;;;;4895767;29;20181;-57
2021/05/22 01:38:31;;;;;;;4.13;1.83;;;;;;;;;;4895902;29;22099;-55
2021/05/22 01:40:57;;;;;;;8.27;2.17;;;;;;;;;;4895822;29;20051;-57
2021/05/22 01:43:23;;;;;;;6.43;2.08;;;;;;;;;;4895684;29;20387;-57
2021/05/22 01:45:49;;;;;;;12.80;2.22;;;;;;;;;;4894979;29;20591;-57
2021/05/22 01:48:18;;;;;;;7.13;2.25;;;;;;;;;;4895929;29;20039;-58
2021/05/22 01:51:04;;;;;;;6.18;1.65;;;;;;;;;;4893825;29;20028;-58
2021/05/22 01:53:31;;;;;;;5.30;1.73;;;;;;;;;;4895250;29;20379;-58
2021/05/22 01:55:57;;;;;;;8.57;2.10;;;;;;;;;;4899150;29;20137;-57
2021/05/22 01:58:23;;;;;;;5.43;1.67;;;;;;;;;;4896435;29;20139;-58
2021/05/22 02:00:49;;;;;;;8.68;2.00;;;;;;;;;;4897199;29;20051;-59
2021/05/22 02:03:26;;;;;;;5.95;1.98;;;;;;;;;;4896600;29;20048;-59
2021/05/22 02:05:53;;;;;;;9.90;1.90;;;;;;;;;;4897170;29;20427;-59
2021/05/22 02:08:20;;;;;;;10.48;2.05;;;;;;;;;;4895612;29;20970;-58
2021/05/22 02:10:47;;;;;;;7.85;2.17;;;;;;;;;;4913084;29;20073;-58
2021/05/22 02:13:13;;;;;;;5.07;1.88;;;;;;;;;;4916865;29;20491;-58
2021/05/22 02:15:40;;;;;;;6.10;1.70;;;;;;;;;;4913792;29;20044;-59
2021/05/22 02:18:07;;;;;;;6.03;1.70;;;;;;;;;;4913275;29;20917;-56
2021/05/22 02:20:33;;;;;;;6.65;1.90;;;;;;;;;;4914103;29;20134;-57
2021/05/22 02:23:01;;;;;;;8.80;2.55;;;;;;;;;;4917393;29;20040;-59
2021/05/22 02:25:27;;;;;;;5.60;1.90;;;;;;;;;;4913687;29;20368;-55
2021/05/22 02:27:53;;;;;;;11.00;2.22;;;;;;;;;;4914646;29;20576;-57
2021/05/22 02:30:19;;;;;;;7.85;2.22;;;;;;;;;;4915030;29;20185;-56
2021/05/22 02:32:48;;;;;;;6.85;2.10;;;;;;;;;;4910313;29;20040;-57
2021/05/22 02:35:15;;;;;;;5.15;1.85;;;;;;;;;;4915187;29;20092;-52
2021/05/22 02:37:41;;;;;;;11.65;2.40;;;;;;;;;;4913053;29;20047;-56
2021/05/22 02:40:13;;;;;;;3.83;1.73;;;;;;;;;;4916861;29;20461;-57
2021/05/22 02:42:41;;;;;;;7.28;2.20;;;;;;;;;;4915889;29;20138;-56
2021/05/22 02:45:08;;;;;;;6.15;2.33;;;;;;;;;;4915727;29;20134;-56
2021/05/22 02:47:34;;;;;;;5.97;2.28;;;;;;;;;;4913891;29;20060;-53
2021/05/22 02:50:03;;;;;;;6.80;2.70;;;;;;;;;;4914582;29;20452;-54
2021/05/22 02:52:29;;;;;;;7.32;2.40;;;;;;;;;;4910987;29;20656;-56
2021/05/22 02:54:55;;;;;;;7.18;2.30;;;;;;;;;;4917071;29;20851;-57
2021/05/22 02:57:22;;;;;;;8.50;2.20;;;;;;;;;;4917395;29;20039;-53
2021/05/22 02:59:49;;;;;;;8.38;2.35;;;;;;;;;;4919267;29;20069;-59
2021/05/22 03:02:16;;;;;;;10.90;3.53;;;;;;;;;;4919406;29;20067;-53
2021/05/22 03:04:42;;;;;;;8.45;2.30;;;;;;;;;;4918013;29;20076;-55
2021/05/22 03:07:08;;;;;;;6.15;2.53;;;;;;;;;;4918266;29;20070;-56
2021/05/22 03:09:34;;;;;;;8.75;2.45;;;;;;;;;;4919304;29;20122;-57
2021/05/22 03:11:59;;;;;;;8.80;2.17;;;;;;;;;;4918703;29;20040;-58
2021/05/22 03:14:25;;;;;;;6.65;2.25;;;;;;;;;;4918537;29;20063;-57
2021/05/22 03:16:51;;;;;;;7.55;2.67;;;;;;;;;;4917830;29;20107;-52
2021/05/22 03:19:17;;;;;;;5.53;2.30;;;;;;;;;;4919020;29;20173;-56
2021/05/22 03:21:43;;;;;;;7.13;2.30;;;;;;;;;;4918775;29;20056;-57
2021/05/22 03:24:09;;;;;;;6.45;2.20;;;;;;;;;;4916724;29;20111;-57
2021/05/22 03:26:34;;;;;;;8.48;2.30;;;;;;;;;;4914282;29;20374;-54
2021/05/22 03:29:00;;;;;;;9.38;2.40;;;;;;;;;;4917929;29;20051;-54
2021/05/22 03:31:26;;;;;;;5.40;2.38;;;;;;;;;;4916911;29;20407;-55
2021/05/22 03:33:52;;;;;;;15.50;2.75;;;;;;;;;;4908667;29;20612;-55
2021/05/22 03:36:18;;;;;;;7.25;2.40;;;;;;;;;;4916476;29;20050;-54
2021/05/22 03:38:44;;;;;;;6.63;2.30;;;;;;;;;;4916722;29;20526;-58
2021/05/22 03:41:10;;;;;;;8.40;3.33;;;;;;;;;;4917877;29;20048;-55
2021/05/22 03:43:36;;;;;;;9.43;2.38;;;;;;;;;;4918614;29;20107;-57
2021/05/22 03:46:02;;;;;;;12.75;2.75;;;;;;;;;;4917662;29;20127;-55
2021/05/22 03:48:28;;;;;;;9.57;2.50;;;;;;;;;;4917310;29;20079;-54
2021/05/22 03:50:54;;;;;;;6.78;2.80;;;;;;;;;;4917749;29;20123;-55
2021/05/22 03:53:21;;;;;;;9.45;2.63;;;;;;;;;;4917590;29;20531;-55
2021/05/22 03:55:46;;;;;;;7.95;2.15;;;;;;;;;;4907102;29;20047;-57
2021/05/22 03:58:12;;;;;;;7.40;2.67;;;;;;;;;;4916111;29;20396;-53
2021/05/22 04:00:38;;;;;;;7.68;2.60;;;;;;;;;;4916779;29;20620;-56
2021/05/22 04:03:05;;;;;;;7.13;2.72;;;;;;;;;;4917814;29;20590;-52
2021/05/22 04:05:31;;;;;;;10.43;2.58;;;;;;;;;;4916559;29;20079;-56
2021/05/22 04:07:57;;;;;;;6.75;2.35;;;;;;;;;;4917383;29;20044;-57
2021/05/22 04:10:23;;;;;;;5.22;2.20;;;;;;;;;;4915235;29;20122;-53
2021/05/22 04:12:49;;;;;;;6.45;2.53;;;;;;;;;;4918402;29;20046;-54
2021/05/22 04:15:15;;;;;;;5.97;2.22;;;;;;;;;;4918794;29;20073;-54
2021/05/22 04:17:41;;;;;;;8.23;2.15;;;;;;;;;;4916409;29;20036;-56
2021/05/22 04:20:07;;;;;;;5.63;1.85;;;;;;;;;;4918849;29;20048;-55
2021/05/22 04:22:34;;;;;;;9.18;2.13;;;;;;;;;;4917201;29;20058;-53
2021/05/22 04:24:59;;;;;;;10.23;2.25;;;;;;;;;;4919048;29;20523;-55
2021/05/22 04:27:25;;;;;;;8.13;2.42;;;;;;;;;;4918681;29;20043;-56
2021/05/22 04:29:51;;;;;;;8.27;2.30;;;;;;;;;;4918185;29;20032;-54
2021/05/22 04:32:17;;;;;;;6.13;2.25;;;;;;;;;;4919836;29;21019;-53
2021/05/22 04:34:43;;;;;;;7.13;2.17;;;;;;;;;;4917397;29;20134;-56
2021/05/22 04:37:08;;;;;;;10.07;2.00;;;;;;;;;;4916161;29;20036;-57
2021/05/22 04:39:34;;;;;;;7.63;2.10;;;;;;;;;;4916375;29;21036;-53
2021/05/22 04:42:00;;;;;;;7.70;2.05;;;;;;;;;;4916618;29;20048;-57
2021/05/22 04:44:26;;;;;;;7.75;2.03;;;;;;;;;;4917456;29;20055;-56
2021/05/22 04:46:52;;;;;;;5.60;2.30;;;;;;;;;;4916399;29;22409;-56
2021/05/22 04:49:17;;;;;;;8.88;2.00;;;;;;;;;;4915907;29;20522;-58
2021/05/22 04:51:45;;;;;;;7.18;1.98;;;;;;;;;;4917269;29;20170;-53
2021/05/22 04:54:11;;;;;;;5.47;1.80;;;;;;;;;;4917786;29;20052;-55
2021/05/22 04:56:37;;;;;;;4.90;1.92;;;;;;;;;;4916077;29;20394;-55
2021/05/22 04:59:03;;;;;;;12.15;2.50;;;;;;;;;;4918750;29;20070;-53
2021/05/22 05:01:30;;;;;;;5.82;1.95;;;;;;;;;;4916415;29;20055;-57
2021/05/22 05:03:56;;;;;;;5.50;1.80;;;;;;;;;;4919783;29;20115;-56
2021/05/22 05:06:22;;;;;;;8.10;2.13;;;;;;;;;;4917891;29;20403;-57
2021/05/22 05:08:48;;;;;;;5.97;2.00;;;;;;;;;;4917057;29;20070;-55
2021/05/22 05:11:14;;;;;;;11.57;1.95;;;;;;;;;;4917880;29;20047;-55
2021/05/22 05:13:40;;;;;;;6.65;2.10;;;;;;;;;;4916368;29;20044;-57
2021/05/22 05:16:06;;;;;;;10.10;2.28;;;;;;;;;;4916233;29;20050;-57
2021/05/22 05:18:31;;;;;;;6.85;2.03;;;;;;;;;;4915728;29;20044;-57
2021/05/22 05:20:57;;;;;;;17.02;2.70;;;;;;;;;;4918318;29;20497;-55
2021/05/22 05:23:23;;;;;;;11.85;3.30;;;;;;;;;;4916357;29;20035;-56
2021/05/22 05:25:51;;;;;;;6.95;2.17;;;;;;;;;;4911584;29;20038;-56
2021/05/22 05:28:18;;;;;;;12.45;2.50;;;;;;;;;;4914881;29;20046;-56
2021/05/22 05:30:44;;;;;;;8.40;2.20;;;;;;;;;;4918004;29;20036;-53
2021/05/22 05:33:10;;;;;;;12.10;2.50;;;;;;;;;;4918949;29;20044;-56
2021/05/22 05:35:36;;;;;;;11.50;2.67;;;;;;;;;;4917275;29;20234;-56
2021/05/22 05:38:01;;;;;;;10.40;2.88;;;;;;;;;;4916419;29;20380;-54
2021/05/22 05:40:27;;;;;;;12.05;2.67;;;;;;;;;;4916373;29;20079;-57
2021/05/22 05:42:53;;;;;;;8.30;2.67;;;;;;;;;;4917458;29;20131;-55
2021/05/22 05:45:19;;;;;;;7.88;3.20;;;;;;;;;;4899396;29;20047;-56
2021/05/22 05:47:44;;;;;;;9.98;3.22;;;;;;;;;;4916714;29;20089;-52
2021/05/22 05:50:11;;;;;;;15.07;3.58;;;;;;;;;;4917855;29;20759;-54
2021/05/22 05:52:36;;;;;;;12.55;3.10;;;;;;;;;;4916286;29;20047;-56
2021/05/22 05:55:02;;;;;;;9.20;3.17;;;;;;;;;;4917472;29;20032;-55
2021/05/22 05:57:28;;;;;;;14.35;3.55;;;;;;;;;;4915199;29;20048;-55
2021/05/22 05:59:54;;;;;;;7.95;2.83;;;;;;;;;;4914647;29;20135;-54
2021/05/22 06:02:20;;;;;;;11.45;2.75;;;;;;;;;;4915816;29;20048;-54
2021/05/22 06:04:45;;;;;;;8.70;2.60;;;;;;;;;;4917615;29;20046;-52
2021/05/22 06:07:11;;;;;;;17.20;2.90;;;;;;;;;;4915747;29;20078;-53
2021/05/22 06:09:37;;;;;;;6.43;2.40;;;;;;;;;;4916681;29;20047;-52
2021/05/22 06:12:03;;;;;;;8.95;2.97;;;;;;;;;;4915497;29;20380;-53
2021/05/22 06:14:35;;;;;;;7.28;2.95;;;;;;;;;;4917290;29;20040;-51
2021/05/22 06:17:01;;;;;;;11.20;3.10;;;;;;;;;;4917284;29;20095;-54
2021/05/22 06:19:26;;;;;;;12.50;3.30;;;;;;;;;;4917233;29;20040;-53
2021/05/22 06:21:52;;;;;;;8.77;3.55;;;;;;;;;;4917787;29;20821;-54
2021/05/22 06:24:18;;;;;;;10.45;3.55;;;;;;;;;;4916843;29;20042;-52
2021/05/22 06:26:44;;;;;;;13.85;3.55;;;;;;;;;;4919609;29;20289;-56
2021/05/22 06:29:09;;;;;;;7.53;3.22;;;;;;;;;;4920558;29;20032;-56
2021/05/22 06:31:35;;;;;;;14.20;3.95;;;;;;;;;;4922226;29;20106;-55
2021/05/22 06:34:01;;;;;;;16.38;3.97;;;;;;;;;;4922473;29;20039;-56
2021/05/22 06:36:30;;;;;;;14.25;3.67;;;;;;;;;;4923306;29;20692;-58
2021/05/22 06:38:55;;;;;;;9.93;3.75;;;;;;;;;;4921419;29;20499;-56
2021/05/22 06:41:21;;;;;;;13.00;4.00;;;;;;;;;;4923767;29;20102;-57
2021/05/22 06:43:47;;;;;;;10.48;3.72;;;;;;;;;;4924677;29;20513;-56
2021/05/22 06:48:39;;;;;;;12.70;3.88;;;;;;;;;;4923966;29;20036;-57
2021/05/22 06:51:05;;;;;;;13.27;3.47;;;;;;;;;;4924913;29;20078;-57
2021/05/22 06:53:31;;;;;;;10.85;4.20;;;;;;;;;;4927161;29;20091;-57
2021/05/22 06:55:57;;;;;;;12.90;4.47;;;;;;;;;;4925303;29;20115;-57
2021/05/22 06:58:23;;;;;;;12.63;4.20;;;;;;;;;;4925935;29;20044;-57
2021/05/22 07:00:49;;;;;;;10.55;4.32;;;;;;;;;;4928577;29;20108;-56
2021/05/22 07:03:15;;;;;;;11.40;4.32;;;;;;;;;;4928936;29;20042;-55
2021/05/22 07:05:41;;;;;;;9.63;4.30;;;;;;;;;;4926953;29;20043;-55
2021/05/22 07:08:07;;;;;;;11.80;4.63;;;;;;;;;;4925946;29;20067;-57
2021/05/22 07:10:33;;;;;;;16.45;5.50;;;;;;;;;;4926155;29;20432;-56
2021/05/22 07:12:58;;;;;;;12.32;4.50;;;;;;;;;;4928853;29;20142;-57
2021/05/22 07:15:24;;;;;;;12.70;4.22;;;;;;;;;;4925860;29;20050;-52
2021/05/22 07:17:50;;;;;;;9.38;4.38;;;;;;;;;;4922586;29;20414;-56
2021/05/22 07:20:16;;;;;;;18.73;5.47;;;;;;;;;;4921150;29;20489;-56
2021/05/22 07:22:42;;;;;;;13.00;5.38;;;;;;;;;;4912427;29;20051;-54
2021/05/22 07:25:08;;;;;;;12.75;4.88;;;;;;;;;;4921557;29;20244;-56
2021/05/22 07:27:35;;;;;;;13.82;4.93;;;;;;;;;;4920197;29;20047;-56
2021/05/22 07:30:09;;;;;;;15.52;5.13;;;;;;;;;;4918639;29;20044;-56
2021/05/22 07:32:36;;;;;;;13.35;5.78;;;;;;;;;;4917902;29;20039;-56
2021/05/22 07:35:02;;;;;;;12.38;4.95;;;;;;;;;;4919283;29;20892;-54
2021/05/22 07:37:27;;;;;;;9.60;5.00;;;;;;;;;;4917462;29;20473;-55
2021/05/22 07:39:56;;;;;;;15.30;5.10;;;;;;;;;;4920152;29;20652;-55
2021/05/22 07:42:22;;;;;;;12.55;5.00;;;;;;;;;;4919395;29;20063;-58
2021/05/22 07:44:48;;;;;;;17.02;5.43;;;;;;;;;;4920875;29;20094;-55
2021/05/22 07:47:14;;;;;;;13.55;5.55;;;;;;;;;;4920052;29;20491;-57
2021/05/22 07:49:40;;;;;;;19.85;6.13;;;;;;;;;;4919550;29;20048;-55
2021/05/22 07:52:08;;;;;;;10.75;6.03;;;;;;;;;;4919802;29;20044;-55
2021/05/22 07:54:35;;;;;;;14.80;6.10;;;;;;;;;;4918852;29;20047;-56
2021/05/22 07:57:02;;;;;;;15.52;5.40;;;;;;;;;;4920124;29;20075;-57
2021/05/22 07:59:28;;;;;;;12.52;6.20;;;;;;;;;;4918428;29;20040;-57
2021/05/22 08:01:54;;;;;;;16.33;6.03;;;;;;;;;;4919482;29;20292;-57
2021/05/22 08:04:20;;;;;;;11.55;5.35;;;;;;;;;;4918654;29;20047;-55
2021/05/22 08:06:46;;;;;;;13.45;5.95;;;;;;;;;;4917420;29;20040;-57
2021/05/22 08:09:12;;;;;;;14.73;5.32;;;;;;;;;;4919214;29;20052;-56
2021/05/22 08:11:37;;;;;;;22.15;6.57;;;;;;;;;;4918674;29;22387;-56
2021/05/22 08:14:03;;;;;;;13.43;6.97;;;;;;;;;;4920058;29;20110;-53
2021/05/22 08:16:29;;;;;;;11.45;5.15;;;;;;;;;;4917673;29;20066;-56
2021/05/22 08:18:55;;;;;;;15.25;6.30;;;;;;;;;;4918435;29;20031;-57
2021/05/22 08:21:23;;;;;;;11.38;4.78;;;;;;;;;;4915543;29;20137;-56
2021/05/22 08:23:49;;;;;;;11.27;4.65;;;;;;;;;;4917131;29;20051;-55
2021/05/22 08:26:15;;;;;;;13.63;5.10;;;;;;;;;;4918796;29;20122;-52
2021/05/22 08:28:41;;;;;;;18.08;5.15;;;;;;;;;;4915650;29;20036;-53
2021/05/22 08:31:06;;;;;;;15.15;5.22;;;;;;;;;;4917877;29;20044;-56
2021/05/22 08:33:32;;;;;;;12.40;4.13;;;;;;;;;;4917762;29;22002;-53
2021/05/22 08:35:58;;;;;;;14.95;4.75;;;;;;;;;;4917937;29;20044;-52
2021/05/22 08:38:24;;;;;;;15.02;4.75;;;;;;;;;;4914919;29;20043;-52
2021/05/22 08:40:50;;;;;;;12.55;3.83;;;;;;;;;;4918170;29;20510;-54
2021/05/22 08:43:16;;;;;;;9.60;4.40;;;;;;;;;;4916924;29;20126;-56
2021/05/22 08:45:43;;;;;;;10.23;3.80;;;;;;;;;;4916460;29;20040;-52
2021/05/22 08:48:09;;;;;;;12.20;3.95;;;;;;;;;;4917871;29;20044;-56
2021/05/22 08:50:35;;;;;;;13.38;3.95;;;;;;;;;;4915411;29;20443;-56
2021/05/22 08:53:00;;;;;;;8.30;3.45;;;;;;;;;;4917928;29;20147;-53
2021/05/22 08:55:26;;;;;;;12.73;3.30;;;;;;;;;;4917707;29;20554;-55
2021/05/22 08:57:53;;;;;;;9.48;3.38;;;;;;;;;;4916168;29;22153;-55
2021/05/22 09:00:22;;;;;;;11.88;4.20;;;;;;;;;;4916424;29;20084;-55
2021/05/22 09:02:48;;;;;;;9.23;3.50;;;;;;;;;;4916586;29;20136;-55
2021/05/22 09:05:24;;;;;;;9.32;3.50;;;;;;;;;;4918612;29;20035;-56
2021/05/22 09:07:52;;;;;;;7.88;3.50;;;;;;;;;;4915645;29;20039;-53
2021/05/22 09:10:19;;;;;;;11.23;3.60;;;;;;;;;;4916107;29;20514;-52
2021/05/22 09:12:47;;;;;;;9.45;3.20;;;;;;;;;;4916238;29;20051;-56
2021/05/22 09:15:14;;;;;;;10.75;3.50;;;;;;;;;;4916945;29;20106;-56
2021/05/22 09:17:59;;;;;;;6.60;3.50;;;;;;;;;;4914192;29;20523;-55
2021/05/22 09:20:30;;;;;;;7.65;3.00;;;;;;;;;;4916519;29;20040;-52
2021/05/22 09:23:00;;;;;;;6.50;3.33;;;;;;;;;;4916699;29;20082;-55
2021/05/22 09:25:27;;;;;;;18.98;3.40;;;;;;;;;;4915719;29;20114;-54
2021/05/22 09:27:54;;;;;;;11.15;3.33;;;;;;;;;;4916176;29;20091;-54
2021/05/22 09:30:20;;;;;;;12.88;3.67;;;;;;;;;;4915601;29;20046;-55
2021/05/22 09:32:47;;;;;;;11.77;3.28;;;;;;;;;;4915405;29;20124;-55
2021/05/22 09:35:13;;;;;;;11.82;3.70;;;;;;;;;;4916795;29;20040;-56
2021/05/22 09:37:39;;;;;;;7.40;3.30;;;;;;;;;;4916431;29;20111;-56
2021/05/22 09:40:05;;;;;;;11.18;3.38;;;;;;;;;;4916171;29;20052;-56
2021/05/22 09:42:31;;;;;;;7.68;3.67;;;;;;;;;;4917062;29;20398;-57
2021/05/22 09:44:58;;;;;;;11.43;3.40;;;;;;;;;;4916249;29;20055;-54
2021/05/22 09:47:24;;;;;;;9.20;3.92;;;;;;;;;;4916262;29;20407;-54
2021/05/22 09:49:50;;;;;;;11.98;3.88;;;;;;;;;;4919195;29;20098;-54
2021/05/22 09:52:17;;;;;;;11.20;3.20;;;;;;;;;;4917704;29;20043;-53
2021/05/22 09:54:50;;;;;;;17.25;5.05;;;;;;;;;;4914942;29;20519;-55
2021/05/22 09:57:16;;;;;;;9.45;3.65;;;;;;;;;;4916334;29;20117;-54
2021/05/22 09:59:42;;;;;;;11.07;3.70;;;;;;;;;;4915921;29;20035;-55
2021/05/22 10:02:09;;;;;;;9.32;3.83;;;;;;;;;;4916156;29;20055;-56
2021/05/22 10:04:35;;;;;;;9.45;4.03;;;;;;;;;;4916244;29;20043;-54
2021/05/22 10:07:01;;;;;;;10.88;3.60;;;;;;;;;;4917829;29;20049;-56
2021/05/22 10:09:28;;;;;;;13.70;4.13;;;;;;;;;;4916579;29;20523;-55
2021/05/22 10:12:03;;;;;;;10.13;3.90;;;;;;;;;;4915306;29;20047;-55
2021/05/22 10:14:31;;;;;;;15.68;4.53;;;;;;;;;;4915892;29;20043;-55
2021/05/22 10:16:57;;;;;;;13.85;4.43;;;;;;;;;;4915338;29;20047;-57
2021/05/22 10:19:25;;;;;;;15.40;5.40;;;;;;;;;;4914900;29;20036;-54
2021/05/22 10:21:51;;;;;;;13.35;5.55;;;;;;;;;;4915037;29;20193;-55
2021/05/22 10:24:18;;;;;;;19.67;6.22;;;;;;;;;;4915513;29;20744;-52
2021/05/22 10:26:44;;;;;;;11.52;5.13;;;;;;;;;;4913061;29;20060;-55
2021/05/22 10:29:10;;;;;;;15.43;5.18;;;;;;;;;;4915291;29;20062;-56
2021/05/22 10:31:42;;;;;;;12.55;4.60;;;;;;;;;;4914738;29;20051;-57
2021/05/22 10:34:12;;;;;;;13.40;4.95;;;;;;;;;;4916053;29;20055;-57
2021/05/22 10:36:47;;;;;;;12.02;4.07;;;;;;;;;;4913449;29;20044;-52
2021/05/22 10:39:31;;;;;;;8.05;3.58;;;;;;;;;;4915625;29;20039;-55
2021/05/22 10:41:57;;;;;;;8.48;3.80;;;;;;;;;;4915323;29;20087;-52
2021/05/22 10:44:27;;;;;;;11.10;4.28;;;;;;;;;;4912945;29;20046;-55
2021/05/22 10:47:06;;;;;;;7.07;3.85;;;;;;;;;;4914893;29;20043;-55
2021/05/22 10:49:47;;;;;;;9.38;3.83;;;;;;;;;;4913599;29;20457;-57
2021/05/22 10:52:17;;;;;;;12.93;4.22;;;;;;;;;;4914253;29;20115;-54
2021/05/22 10:55:01;;;;;;;7.65;3.92;;;;;;;;;;4913271;29;20042;-53
2021/05/22 10:57:28;;;;;;;8.48;4.18;;;;;;;;;;4912628;29;20047;-54
2021/05/22 11:00:12;;;;;;;8.13;4.35;;;;;;;;;;4913193;29;20044;-56
2021/05/22 11:02:42;;;;;;;7.60;4.13;;;;;;;;;;4915283;29;20075;-55
2021/05/22 11:05:25;;;;;;;10.82;4.80;;;;;;;;;;4915385;29;20044;-55
2021/05/22 11:08:12;;;;;;;11.50;4.25;;;;;;;;;;4895179;29;20500;-55
2021/05/22 11:10:38;;;;;;;11.30;4.28;;;;;;;;;;4898085;29;20136;-53
2021/05/22 11:13:08;;;;;;;14.48;4.97;;;;;;;;;;4914441;29;20062;-53
2021/05/22 11:15:38;;;;;;;10.57;4.35;;;;;;;;;;4916568;29;20183;-57
2021/05/22 11:18:05;;;;;;;15.15;5.32;;;;;;;;;;4917534;29;20050;-56
2021/05/22 11:20:30;;;;;;;15.10;5.70;;;;;;;;;;4914520;29;20039;-56
2021/05/22 11:23:00;;;;;;;13.68;5.47;;;;;;;;;;4916976;29;20898;-54
2021/05/22 11:25:28;;;;;;;12.77;5.60;;;;;;;;;;4916716;29;20136;-54
2021/05/22 11:28:01;;;;;;;12.57;5.50;;;;;;;;;;4916029;29;20035;-53
2021/05/22 11:30:30;;;;;;;13.77;5.22;;;;;;;;;;4916959;29;20040;-55
2021/05/22 11:32:58;;;;;;;10.25;4.90;;;;;;;;;;4918249;29;20047;-55
2021/05/22 11:35:24;;;;;;;14.07;4.70;;;;;;;;;;4916985;29;22329;-57
2021/05/22 11:37:51;;;;;;;10.13;4.32;;;;;;;;;;4917650;29;20094;-54
2021/05/22 11:40:35;;;;;;;14.13;4.70;;;;;;;;;;4918659;29;20043;-56
2021/05/22 11:43:21;;;;;;;8.45;4.30;;;;;;;;;;4917572;29;20088;-56
2021/05/22 11:45:47;;;;;;;13.80;5.07;;;;;;;;;;4915459;29;20048;-57
2021/05/22 11:48:25;;;;;;;10.68;4.35;;;;;;;;;;4916329;29;20035;-57
2021/05/22 11:50:52;;;;;;;12.80;4.70;;;;;;;;;;4910827;29;20051;-53
2021/05/22 11:53:18;;;;;;;13.20;4.85;;;;;;;;;;4917170;29;20150;-55
2021/05/22 11:56:04;;;;;;;13.95;4.97;;;;;;;;;;4916695;29;20051;-54
2021/05/22 11:58:31;;;;;;;14.52;5.13;;;;;;;;;;4915704;29;20526;-56
2021/05/22 12:01:06;;;;;;;14.10;5.13;;;;;;;;;;4900927;29;20114;-55
2021/05/22 12:03:32;;;;;;;9.63;4.88;;;;;;;;;;4916659;29;20226;-56
2021/05/22 12:05:57;;;;;;;11.30;4.25;;;;;;;;;;4917161;29;20570;-53
2021/05/22 12:08:27;;;;;;;11.15;4.60;;;;;;;;;;4913103;29;20040;-53
2021/05/22 12:10:53;;;;;;;12.13;4.57;;;;;;;;;;4917691;29;20353;-54
2021/05/22 12:13:19;;;;;;;12.55;4.68;;;;;;;;;;4917068;29;20046;-52
2021/05/22 12:15:45;;;;;;;9.90;4.18;;;;;;;;;;4916746;29;20043;-53
2021/05/22 12:18:14;;;;;;;10.85;4.38;;;;;;;;;;4915564;29;20687;-57
2021/05/22 12:20:50;;;;;;;7.80;4.40;;;;;;;;;;4915510;29;20090;-55
2021/05/22 12:23:32;;;;;;;11.95;4.78;;;;;;;;;;4916368;29;20110;-56
2021/05/22 12:25:59;;;;;;;9.75;4.60;;;;;;;;;;4915724;29;20032;-56
2021/05/22 12:28:25;;;;;;;8.85;4.78;;;;;;;;;;4914745;29;20042;-56
2021/05/22 12:30:52;;;;;;;11.90;4.85;;;;;;;;;;4918397;29;20075;-53
2021/05/22 12:33:18;;;;;;;10.27;4.15;;;;;;;;;;4916126;29;20054;-57
2021/05/22 12:36:00;;;;;;;12.68;4.20;;;;;;;;;;4916599;29;20044;-57
2021/05/22 12:38:42;;;;;;;14.15;4.15;;;;;;;;;;4915233;29;20565;-55
2021/05/22 12:41:08;;;;;;;11.82;4.40;;;;;;;;;;4916644;29;20052;-55
2021/05/22 12:44:00;;;;;;;9.75;4.50;;;;;;;;;;4915024;29;20663;-56
2021/05/22 12:46:26;;;;;;;13.82;4.65;;;;;;;;;;4913873;29;20134;-55
2021/05/22 12:48:53;;;;;;;18.48;4.95;;;;;;;;;;4917277;29;20127;-55
2021/05/22 12:51:20;;;;;;;34.53;6.10;;;;;;;;;;4916112;29;20044;-53
2021/05/22 12:53:46;;;;;;;36.50;5.05;;;;;;;;;;4917229;29;20483;-57
2021/05/22 12:56:11;;;;;;;9.40;4.13;;;;;;;;;;4916663;29;20071;-54
2021/05/22 12:58:37;;;;;;;9.95;4.50;;;;;;;;;;4915937;29;20039;-54
2021/05/22 13:01:23;;;;;;;10.35;4.55;;;;;;;;;;4916008;29;20035;-54
2021/05/22 13:03:49;;;;;;;9.98;4.88;;;;;;;;;;4915826;29;20046;-56
2021/05/22 13:06:33;;;;;;;9.82;4.50;;;;;;;;;;4916270;29;20126;-52
2021/05/22 13:08:58;;;;;;;;;;;;;;;;;;4915859;29;20458;-54
2021/05/22 13:11:24;;;;;;;14.02;4.97;;;;;;;;;;4915356;29;19925;-55
2021/05/22 13:14:00;;;;;;;17.83;5.05;;;;;;;;;;4915015;29;20052;-56
2021/05/22 13:16:25;;;;;;;11.95;4.85;;;;;;;;;;4915306;29;20043;-55
2021/05/22 13:18:51;;;;;;;13.00;5.05;;;;;;;;;;4914340;29;20406;-52
2021/05/22 13:21:17;;;;;;;10.65;4.82;;;;;;;;;;4915654;29;20696;-54
2021/05/22 13:23:44;;;;;;;14.32;5.03;;;;;;;;;;4916440;29;20042;-54
2021/05/22 13:26:20;;;;;;;10.75;4.82;;;;;;;;;;4916265;29;20038;-51
2021/05/22 13:28:50;;;;;;;11.05;5.28;;;;;;;;;;4912900;29;20392;-51
2021/05/22 13:31:24;;;;;;;16.33;5.53;;;;;;;;;;4915688;29;20044;-53
2021/05/22 13:33:50;;;;;;;;;;;;;;;;;;4914833;29;20070;-56
2021/05/22 13:36:17;;;;;;;11.52;5.00;;;;;;;;;;4915827;29;19955;-53
2021/05/22 13:38:43;;;;;;;12.82;5.10;;;;;;;;;;4912695;29;20071;-57
2021/05/22 13:41:09;;;;;;;11.52;5.13;;;;;;;;;;4916044;29;20213;-55
2021/05/22 13:43:35;;;;;;;18.48;5.15;;;;;;;;;;4915298;29;20042;-54
2021/05/22 13:46:02;;;;;;;16.00;5.28;;;;;;;;;;4915620;29;20387;-57
2021/05/22 13:48:28;;;;;;;11.32;5.05;;;;;;;;;;4913683;29;20043;-57
2021/05/22 13:50:54;;;;;;;11.50;4.75;;;;;;;;;;4917617;29;20043;-56
2021/05/22 13:53:20;;;;;;;12.18;5.03;;;;;;;;;;4916678;29;20044;-59
2021/05/22 13:55:46;;;;;;;15.00;5.35;;;;;;;;;;4914246;29;20348;-56
2021/05/22 13:58:13;;;;;;;8.40;4.75;;;;;;;;;;4915250;29;20036;-57
2021/05/22 14:00:40;;;;;;;12.20;5.18;;;;;;;;;;4913674;29;20044;-57
2021/05/22 14:03:06;;;;;;;14.90;5.20;;;;;;;;;;4917235;29;20146;-55
2021/05/22 14:05:32;;;;;;;16.25;5.30;;;;;;;;;;4915547;29;20038;-55
2021/05/22 14:07:57;;;;;;;11.90;4.93;;;;;;;;;;4914598;29;20046;-56
2021/05/22 14:10:23;;;;;;;19.85;5.00;;;;;;;;;;4914574;29;20048;-57
2021/05/22 14:12:49;;;;;;;10.68;5.13;;;;;;;;;;4913781;29;20036;-55
2021/05/22 14:15:15;;;;;;;9.85;4.43;;;;;;;;;;4915027;29;20048;-57
2021/05/22 14:17:41;;;;;;;14.35;5.05;;;;;;;;;;4914276;29;20047;-55
2021/05/22 14:20:08;;;;;;;15.98;5.00;;;;;;;;;;4914962;29;20071;-55
2021/05/22 14:22:34;;;;;;;17.23;5.57;;;;;;;;;;4914460;29;20515;-57
2021/05/22 14:25:01;;;;;;;22.83;5.70;;;;;;;;;;4916134;29;20563;-56
2021/05/22 14:27:27;;;;;;;13.43;5.53;;;;;;;;;;4913043;29;20605;-57
2021/05/22 14:29:53;;;;;;;14.90;5.57;;;;;;;;;;4915070;29;20078;-55
2021/05/22 14:32:19;;;;;;;10.30;5.13;;;;;;;;;;4913235;29;20040;-58
2021/05/22 14:34:45;;;;;;;12.00;5.60;;;;;;;;;;4915300;29;20135;-54
2021/05/22 14:37:10;;;;;;;10.73;5.20;;;;;;;;;;4913298;29;20044;-57
2021/05/22 14:39:36;;;;;;;12.48;5.60;;;;;;;;;;4913788;29;20058;-55